createdAt,value
2018-02-06T00:00:25.844Z,0.44
2018-02-06T00:01:25.681Z,0.37
2018-02-06T00:02:26.106Z,0.37
2018-02-06T00:03:25.693Z,0.37
2018-02-06T00:04:25.607Z,0.37
2018-02-06T00:05:25.636Z,0.31
2018-02-06T00:06:25.723Z,0.37
2018-02-06T00:07:25.894Z,0.31
2018-02-06T00:08:25.907Z,0.37
2018-02-06T00:09:25.652Z,0.31
2018-02-06T00:10:25.621Z,0.37
2018-02-06T00:11:25.762Z,0.31
2018-02-06T00:12:25.733Z,0.37
2018-02-06T00:13:25.820Z,0.31
2018-02-06T00:14:25.687Z,0.31
2018-02-06T00:15:25.661Z,0.25
2018-02-06T00:16:25.761Z,0.25
2018-02-06T00:17:25.952Z,0.25
2018-02-06T00:18:25.594Z,0.25
2018-02-06T00:19:25.676Z,0.25
2018-02-06T00:20:25.697Z,0.31
2018-02-06T00:21:25.643Z,0.31
2018-02-06T00:22:25.989Z,0.25
2018-02-06T00:23:25.790Z,0.25
2018-02-06T00:24:25.728Z,0.25
2018-02-06T00:25:25.696Z,0.31
2018-02-06T00:26:25.844Z,0.25
2018-02-06T00:27:25.733Z,0.25
2018-02-06T00:28:25.843Z,0.19
2018-02-06T00:29:25.610Z,0.25
2018-02-06T00:30:25.669Z,0.25
2018-02-06T00:31:25.749Z,0.25
2018-02-06T00:32:25.835Z,0.19
2018-02-06T00:33:25.584Z,0.25
2018-02-06T00:34:25.787Z,0.25
2018-02-06T00:35:25.650Z,0.31
2018-02-06T00:36:25.848Z,0.25
2018-02-06T00:39:25.803Z,0.25
2018-02-06T00:40:25.871Z,0.31
2018-02-06T00:41:25.843Z,0.25
2018-02-06T00:42:25.944Z,0.25
2018-02-06T00:43:25.754Z,0.25
2018-02-06T00:44:25.929Z,0.25
2018-02-06T00:45:25.722Z,0.31
2018-02-06T00:46:25.899Z,0.31
2018-02-06T00:47:25.684Z,0.25
2018-02-06T00:48:25.779Z,0.31
2018-02-06T00:49:25.657Z,0.25
2018-02-06T00:50:25.735Z,0.31
2018-02-06T00:51:25.879Z,0.25
2018-02-06T00:52:25.971Z,0.25
2018-02-06T00:55:25.657Z,0.19
2018-02-06T00:56:25.647Z,0.25
2018-02-06T00:57:25.745Z,0.25
2018-02-06T00:58:25.721Z,0.19
2018-02-06T00:59:25.747Z,0.19
2018-02-06T01:00:25.484Z,0.19
2018-02-06T01:01:25.546Z,0.19
2018-02-06T01:02:25.505Z,0.13
2018-02-06T01:03:25.498Z,0.19
2018-02-06T01:04:25.657Z,0.13
2018-02-06T01:05:25.602Z,0.13
2018-02-06T01:06:25.636Z,0.13
2018-02-06T01:07:25.430Z,0.19
2018-02-06T01:08:25.580Z,0.19
2018-02-06T01:09:25.860Z,0.19
2018-02-06T01:10:25.468Z,0.13
2018-02-06T01:11:25.558Z,0.13
2018-02-06T01:12:25.520Z,0.13
2018-02-06T01:13:25.506Z,0.13
2018-02-06T01:14:25.669Z,0.13
2018-02-06T01:15:25.596Z,0.13
2018-02-06T01:18:25.696Z,0.13
2018-02-06T01:19:25.855Z,0.13
2018-02-06T01:20:25.565Z,0.13
2018-02-06T01:21:25.512Z,0.13
2018-02-06T01:22:25.580Z,0.19
2018-02-06T01:23:25.616Z,0.13
2018-02-06T01:24:26.058Z,0.13
2018-02-06T01:25:25.578Z,0.13
2018-02-06T01:26:25.561Z,0.13
2018-02-06T01:27:25.612Z,0.13
2018-02-06T01:28:25.731Z,0.13
2018-02-06T01:29:25.703Z,0.13
2018-02-06T01:30:25.706Z,0.13
2018-02-06T01:31:25.547Z,0.06
2018-02-06T01:32:25.634Z,0.13
2018-02-06T01:33:25.553Z,0.13
2018-02-06T01:34:25.663Z,0.19
2018-02-06T01:35:25.840Z,0.19
2018-02-06T01:36:25.746Z,0.19
2018-02-06T01:37:25.597Z,0.19
2018-02-06T01:38:25.618Z,0.19
2018-02-06T01:39:25.600Z,0.19
2018-02-06T01:40:25.661Z,0.19
2018-02-06T01:41:25.593Z,0.19
2018-02-06T01:42:25.552Z,0.19
2018-02-06T01:43:25.684Z,0.19
2018-02-06T01:44:25.690Z,0.19
2018-02-06T01:45:25.739Z,0.19
2018-02-06T01:46:25.586Z,0.19
2018-02-06T01:47:25.487Z,0.19
2018-02-06T01:48:25.595Z,0.19
2018-02-06T01:49:25.491Z,0.19
2018-02-06T01:50:25.743Z,0.19
2018-02-06T01:51:25.492Z,0.25
2018-02-06T01:52:25.636Z,0.19
2018-02-06T01:53:25.680Z,0.19
2018-02-06T01:54:25.722Z,0.19
2018-02-06T01:55:25.944Z,0.19
2018-02-06T01:56:25.623Z,0.19
2018-02-06T01:57:25.642Z,0.19
2018-02-06T01:58:25.675Z,0.19
2018-02-06T01:59:25.587Z,0.25
2018-02-06T02:00:25.641Z,0.19
2018-02-06T02:01:25.705Z,0.19
2018-02-06T02:02:25.537Z,0.13
2018-02-06T02:03:25.646Z,0.19
2018-02-06T02:04:25.780Z,0.13
2018-02-06T02:05:25.521Z,0.13
2018-02-06T02:06:25.669Z,0.13
2018-02-06T02:07:25.507Z,0.13
2018-02-06T02:08:25.579Z,0.06
2018-02-06T02:09:25.508Z,0.13
2018-02-06T02:10:25.635Z,0.13
2018-02-06T02:11:25.625Z,0.06
2018-02-06T02:12:25.632Z,0.13
2018-02-06T02:13:25.672Z,0.06
2018-02-06T02:14:25.532Z,0.13
2018-02-06T02:15:25.585Z,0.06
2018-02-06T02:16:25.535Z,0.06
2018-02-06T02:17:25.716Z,0.06
2018-02-06T02:18:25.652Z,0.06
2018-02-06T02:19:25.524Z,0.13
2018-02-06T02:20:25.689Z,0.13
2018-02-06T02:21:25.478Z,0.06
2018-02-06T02:22:25.524Z,0.13
2018-02-06T02:23:25.567Z,0.06
2018-02-06T02:24:25.658Z,0.19
2018-02-06T02:25:25.507Z,0.13
2018-02-06T02:26:25.643Z,0.13
2018-02-06T02:27:25.741Z,0.13
2018-02-06T02:28:25.768Z,0.13
2018-02-06T02:29:25.496Z,0.13
2018-02-06T02:30:25.559Z,0.19
2018-02-06T02:31:25.554Z,0.19
2018-02-06T02:32:25.404Z,0.19
2018-02-06T02:33:26.579Z,0.13
2018-02-06T02:34:26.302Z,0.13
2018-02-06T02:35:26.287Z,0.19
2018-02-06T02:36:26.327Z,0.19
2018-02-06T02:37:26.341Z,0.13
2018-02-06T02:38:26.103Z,0.13
2018-02-06T02:39:26.429Z,0.13
2018-02-06T02:40:26.333Z,0.13
2018-02-06T02:41:26.277Z,0.13
2018-02-06T04:38:26.355Z,-0.06
2018-02-06T04:39:26.266Z,-0.13
2018-02-06T04:40:26.407Z,-0.06
2018-02-06T04:41:26.518Z,-0.13
2018-02-06T04:42:26.548Z,-0.06
2018-02-06T04:43:26.497Z,-0.06
2018-02-06T04:44:26.629Z,-0.06
2018-02-06T04:45:26.430Z,-0.06
2018-02-06T04:46:26.473Z,-0.06
2018-02-06T04:47:26.514Z,-0.06
2018-02-06T04:48:26.503Z,-0.13
2018-02-06T04:49:26.569Z,-0.06
2018-02-06T04:50:26.344Z,-0.06
2018-02-06T04:51:26.389Z,-0.13
2018-02-06T04:52:26.292Z,-0.06
2018-02-06T04:53:26.281Z,-0.06
2018-02-06T04:54:26.302Z,-0.06
2018-02-06T04:55:26.443Z,-0.06
2018-02-06T04:56:26.382Z,-0.06
2018-02-06T04:57:26.376Z,-0.13
2018-02-06T04:58:26.404Z,-0.13
2018-02-06T04:59:26.326Z,-0.13
2018-02-06T05:02:26.507Z,-0.13
2018-02-06T05:03:26.432Z,-0.13
2018-02-06T05:04:26.445Z,-0.13
2018-02-06T05:05:26.248Z,-0.06
2018-02-06T05:06:26.258Z,-0.06
2018-02-06T05:07:26.372Z,-0.06
2018-02-06T05:08:26.162Z,-0.06
2018-02-06T05:09:26.291Z,-0.06
2018-02-06T05:10:26.194Z,-0.06
2018-02-06T05:11:26.162Z,0
2018-02-06T05:12:26.322Z,0
2018-02-06T05:13:26.155Z,0
2018-02-06T05:14:26.539Z,0
2018-02-06T05:15:26.421Z,0
2018-02-06T05:16:26.336Z,0.06
2018-02-06T05:17:26.337Z,0.06
2018-02-06T05:18:26.312Z,0.13
2018-02-06T05:19:26.286Z,0.06
2018-02-06T05:20:26.322Z,0.06
2018-02-06T05:21:26.259Z,0.06
2018-02-06T05:22:26.278Z,0
2018-02-06T05:23:26.170Z,0
2018-02-06T05:24:26.359Z,-0.06
2018-02-06T05:25:26.308Z,0
2018-02-06T05:26:26.345Z,0
2018-02-06T05:27:26.174Z,-0.06
2018-02-06T05:28:26.282Z,-0.06
2018-02-06T05:29:26.508Z,-0.06
2018-02-06T05:30:26.295Z,-0.06
2018-02-06T05:31:26.385Z,-0.06
2018-02-06T05:32:26.341Z,-0.06
2018-02-06T05:33:26.318Z,-0.13
2018-02-06T05:34:26.342Z,-0.06
2018-02-06T05:35:26.479Z,-0.13
2018-02-06T05:36:26.200Z,-0.06
2018-02-06T05:37:26.344Z,-0.13
2018-02-06T05:38:26.328Z,-0.06
2018-02-06T05:39:26.205Z,-0.06
2018-02-06T05:40:26.322Z,-0.06
2018-02-06T05:41:26.270Z,-0.06
2018-02-06T05:42:26.089Z,-0.06
2018-02-06T05:43:26.065Z,-0.06
2018-02-06T05:44:26.153Z,-0.06
2018-02-06T05:45:26.314Z,-0.06
2018-02-06T05:46:26.131Z,-0.06
2018-02-06T05:47:26.326Z,-0.06
2018-02-06T05:48:26.168Z,-0.06
2018-02-06T05:49:26.120Z,-0.06
2018-02-06T05:50:26.167Z,-0.13
2018-02-06T05:51:26.173Z,-0.06
2018-02-06T05:52:26.180Z,-0.13
2018-02-06T05:53:26.154Z,-0.06
2018-02-06T05:54:26.268Z,-0.06
2018-02-06T05:55:26.243Z,0
2018-02-06T05:56:26.444Z,-0.06
2018-02-06T05:57:26.224Z,-0.06
2018-02-06T05:58:26.176Z,-0.06
2018-02-06T05:59:26.117Z,-0.06
2018-02-06T06:00:26.228Z,-0.06
2018-02-06T06:01:26.269Z,-0.06
2018-02-06T06:02:26.326Z,-0.06
2018-02-06T06:03:26.370Z,-0.06
2018-02-06T06:04:26.195Z,-0.13
2018-02-06T06:05:26.289Z,-0.06
2018-02-06T06:06:26.384Z,-0.13
2018-02-06T06:07:26.360Z,-0.06
2018-02-06T06:08:26.475Z,-0.06
2018-02-06T06:09:26.412Z,-0.13
2018-02-06T06:10:26.379Z,-0.06
2018-02-06T06:11:26.414Z,-0.06
2018-02-06T06:12:26.380Z,-0.06
2018-02-06T06:13:26.247Z,-0.06
2018-02-06T06:14:26.395Z,0
2018-02-06T06:15:26.492Z,-0.06
2018-02-06T06:16:26.500Z,-0.06
2018-02-06T06:17:26.467Z,0
2018-02-06T06:18:26.355Z,0
2018-02-06T06:19:26.530Z,-0.06
2018-02-06T06:20:26.404Z,0
2018-02-06T06:21:26.334Z,-0.06
2018-02-06T06:22:26.304Z,-0.06
2018-02-06T06:23:26.388Z,-0.06
2018-02-06T06:24:26.330Z,-0.06
2018-02-06T06:25:26.386Z,-0.06
2018-02-06T06:26:26.444Z,-0.06
2018-02-06T06:27:36.447Z,-0.06
2018-02-06T06:28:26.236Z,-0.06
2018-02-06T06:29:26.228Z,-0.13
2018-02-06T06:30:26.281Z,-0.06
2018-02-06T06:31:26.297Z,-0.06
2018-02-06T06:32:26.341Z,-0.06
2018-02-06T06:33:26.309Z,-0.06
2018-02-06T06:34:26.479Z,-0.13
2018-02-06T06:35:26.668Z,-0.06
2018-02-06T06:36:26.369Z,-0.13
2018-02-06T06:37:26.526Z,-0.06
2018-02-06T06:38:26.362Z,-0.13
2018-02-06T06:39:26.450Z,-0.06
2018-02-06T06:40:26.234Z,-0.13
2018-02-06T06:41:26.296Z,-0.06
2018-02-06T06:42:26.352Z,-0.13
2018-02-06T06:43:26.334Z,-0.06
2018-02-06T06:44:26.322Z,-0.06
2018-02-06T06:45:26.547Z,-0.06
2018-02-06T06:46:26.286Z,-0.06
2018-02-06T06:47:26.478Z,-0.06
2018-02-06T06:48:26.522Z,-0.06
2018-02-06T06:49:26.535Z,-0.06
2018-02-06T06:50:26.286Z,-0.06
2018-02-06T06:51:26.353Z,0
2018-02-06T06:52:26.443Z,-0.06
2018-02-06T06:53:26.486Z,0
2018-02-06T06:54:26.388Z,-0.06
2018-02-06T06:55:26.420Z,-0.06
2018-02-06T06:56:26.358Z,-0.06
2018-02-06T06:57:26.602Z,-0.06
2018-02-06T06:58:26.668Z,-0.06
2018-02-06T06:59:26.392Z,-0.06
2018-02-06T07:00:26.580Z,0
2018-02-06T07:01:26.592Z,0
2018-02-06T07:02:26.549Z,0
2018-02-06T07:03:26.370Z,0
2018-02-06T07:04:26.404Z,0
2018-02-06T07:05:26.271Z,0
2018-02-06T07:06:26.329Z,0
2018-02-06T07:07:26.657Z,-0.06
2018-02-06T07:08:26.516Z,0
2018-02-06T07:09:26.420Z,-0.06
2018-02-06T07:10:26.477Z,-0.06
2018-02-06T07:11:26.386Z,0
2018-02-06T07:12:26.615Z,0
2018-02-06T07:13:26.899Z,0
2018-02-06T07:14:26.561Z,0.06
2018-02-06T07:15:26.421Z,0.06
2018-02-06T07:16:26.383Z,0.06
2018-02-06T07:17:26.401Z,0
2018-02-06T07:18:26.476Z,0.06
2018-02-06T07:19:26.444Z,0
2018-02-06T07:20:26.338Z,0
2018-02-06T07:21:26.498Z,0
2018-02-06T07:22:26.430Z,0.06
2018-02-06T07:23:26.414Z,0.06
2018-02-06T07:24:26.438Z,0
2018-02-06T07:25:26.520Z,0
2018-02-06T07:26:26.622Z,0
2018-02-06T07:27:26.357Z,0
2018-02-06T07:28:26.559Z,0
2018-02-06T07:29:26.413Z,0
2018-02-06T07:30:26.635Z,0
2018-02-06T07:31:26.497Z,0.06
2018-02-06T07:32:26.400Z,0.06
2018-02-06T07:33:26.565Z,0.06
2018-02-06T07:34:26.437Z,0.06
2018-02-06T07:35:26.581Z,0.06
2018-02-06T07:36:26.482Z,0.06
2018-02-06T07:37:26.637Z,0.13
2018-02-06T07:38:26.500Z,0.13
2018-02-06T07:39:26.370Z,0.13
2018-02-06T07:40:26.584Z,0.13
2018-02-06T07:41:26.405Z,0.13
2018-02-06T07:42:26.491Z,0.13
2018-02-06T07:43:26.596Z,0.13
2018-02-06T07:44:26.571Z,0.13
2018-02-06T07:45:26.639Z,0.13
2018-02-06T07:46:26.441Z,0.13
2018-02-06T07:47:26.565Z,0.13
2018-02-06T07:48:26.532Z,0.19
2018-02-06T07:49:26.635Z,0.19
2018-02-06T07:50:26.606Z,0.19
2018-02-06T07:51:26.543Z,0.13
2018-02-06T07:52:26.581Z,0.19
2018-02-06T07:53:26.617Z,0.13
2018-02-06T07:54:26.467Z,0.19
2018-02-06T07:55:26.367Z,0.19
2018-02-06T07:56:26.343Z,0.19
2018-02-06T07:57:26.473Z,0.19
2018-02-06T07:58:26.550Z,0.25
2018-02-06T07:59:26.422Z,0.19
2018-02-06T08:00:26.543Z,0.19
2018-02-06T08:01:26.524Z,0.19
2018-02-06T08:02:26.726Z,0.25
2018-02-06T08:03:26.604Z,0.19
2018-02-06T08:04:26.680Z,0.19
2018-02-06T08:05:26.795Z,0.25
2018-02-06T08:06:26.600Z,0.19
2018-02-06T08:07:26.565Z,0.25
2018-02-06T08:08:26.533Z,0.25
2018-02-06T08:09:26.583Z,0.25
2018-02-06T08:10:26.603Z,0.25
2018-02-06T08:11:26.519Z,0.25
2018-02-06T08:12:26.506Z,0.25
2018-02-06T08:13:26.564Z,0.31
2018-02-06T08:14:26.284Z,0.31
2018-02-06T08:15:26.354Z,0.31
2018-02-06T08:16:26.513Z,0.37
2018-02-06T08:17:26.330Z,0.31
2018-02-06T08:18:26.467Z,0.31
2018-02-06T08:19:26.437Z,0.31
2018-02-06T08:20:26.489Z,0.31
2018-02-06T08:21:26.384Z,0.37
2018-02-06T08:22:26.277Z,0.31
2018-02-06T08:23:26.474Z,0.37
2018-02-06T08:24:26.468Z,0.37
2018-02-06T08:25:26.524Z,0.37
2018-02-06T08:26:26.490Z,0.37
2018-02-06T08:27:26.307Z,0.44
2018-02-06T08:28:26.447Z,0.44
2018-02-06T08:29:26.530Z,0.44
2018-02-06T08:30:26.456Z,0.44
2018-02-06T08:31:26.340Z,0.44
2018-02-06T08:32:26.499Z,0.56
2018-02-06T08:33:26.382Z,0.5
2018-02-06T08:34:26.462Z,0.5
2018-02-06T08:35:26.516Z,0.5
2018-02-06T08:36:26.376Z,0.56
2018-02-06T08:37:26.465Z,0.5
2018-02-06T08:38:26.463Z,0.5
2018-02-06T08:39:26.456Z,0.5
2018-02-06T08:40:26.295Z,0.56
2018-02-06T08:41:26.490Z,0.5
2018-02-06T08:42:26.456Z,0.56
2018-02-06T08:43:26.475Z,0.56
2018-02-06T08:44:26.472Z,0.62
2018-02-06T08:45:26.465Z,0.56
2018-02-06T08:46:26.323Z,0.62
2018-02-06T08:47:26.275Z,0.62
2018-02-06T08:48:26.328Z,0.62
2018-02-06T08:49:26.432Z,0.56
2018-02-06T08:50:26.245Z,0.62
2018-02-06T08:51:26.288Z,0.62
2018-02-06T08:52:26.359Z,0.62
2018-02-06T08:53:26.339Z,0.62
2018-02-06T08:54:26.359Z,0.62
2018-02-06T08:55:26.376Z,0.69
2018-02-06T08:56:26.374Z,0.69
2018-02-06T08:57:26.321Z,0.69
2018-02-06T08:58:26.364Z,0.69
2018-02-06T08:59:26.276Z,0.69
2018-02-06T09:00:26.302Z,0.69
2018-02-06T09:01:26.430Z,0.75
2018-02-06T09:02:26.301Z,0.69
2018-02-06T09:03:26.316Z,0.69
2018-02-06T09:04:26.425Z,0.75
2018-02-06T09:05:26.332Z,0.75
2018-02-06T09:06:26.448Z,0.75
2018-02-06T09:07:26.435Z,0.69
2018-02-06T09:08:26.341Z,0.69
2018-02-06T09:09:26.239Z,0.69
2018-02-06T09:10:26.301Z,0.75
2018-02-06T09:11:27.121Z,0.75
2018-02-06T09:12:26.323Z,0.75
2018-02-06T09:13:26.332Z,0.75
2018-02-06T09:14:26.236Z,0.75
2018-02-06T09:15:26.275Z,0.75
2018-02-06T09:16:26.160Z,0.75
2018-02-06T09:17:26.104Z,0.75
2018-02-06T09:18:26.196Z,0.75
2018-02-06T09:19:26.260Z,0.81
2018-02-06T09:20:26.277Z,0.75
2018-02-06T09:21:26.212Z,0.81
2018-02-06T09:22:26.289Z,0.81
2018-02-06T09:23:26.311Z,0.81
2018-02-06T09:24:26.195Z,0.81
2018-02-06T09:25:26.095Z,0.81
2018-02-06T09:26:26.225Z,0.88
2018-02-06T09:27:26.129Z,0.81
2018-02-06T09:28:26.242Z,0.88
2018-02-06T09:29:26.191Z,0.88
2018-02-06T09:30:26.145Z,0.88
2018-02-06T09:31:26.326Z,0.88
2018-02-06T09:32:26.380Z,0.88
2018-02-06T09:33:26.321Z,0.88
2018-02-06T09:34:26.226Z,0.88
2018-02-06T09:35:26.052Z,0.88
2018-02-06T09:36:26.248Z,0.94
2018-02-06T09:37:26.103Z,0.94
2018-02-06T09:38:26.140Z,0.88
2018-02-06T09:39:26.119Z,0.94
2018-02-06T09:40:26.086Z,0.94
2018-02-06T09:41:26.276Z,1
2018-02-06T09:42:26.230Z,1
2018-02-06T09:43:26.215Z,1
2018-02-06T09:44:26.232Z,1
2018-02-06T09:45:26.106Z,1
2018-02-06T09:46:26.012Z,1
2018-02-06T09:47:26.051Z,1
2018-02-06T09:48:26.117Z,1.06
2018-02-06T09:49:25.987Z,1.12
2018-02-06T09:50:26.232Z,1.06
2018-02-06T09:51:26.167Z,1.06
2018-02-06T09:52:26.239Z,1.12
2018-02-06T09:53:26.143Z,1.12
2018-02-06T09:54:26.210Z,1.19
2018-02-06T09:55:27.157Z,1.19
2018-02-06T09:56:26.152Z,1.19
2018-02-06T09:57:26.111Z,1.19
2018-02-06T09:58:26.044Z,1.25
2018-02-06T09:59:26.062Z,1.25
2018-02-06T10:00:26.062Z,1.25
2018-02-06T10:01:26.113Z,1.31
2018-02-06T10:02:25.979Z,1.31
2018-02-06T10:03:26.120Z,1.31
2018-02-06T10:04:26.136Z,1.31
2018-02-06T10:05:26.131Z,1.37
2018-02-06T10:06:26.069Z,1.37
2018-02-06T10:07:26.852Z,1.37
2018-02-06T10:08:26.176Z,1.44
2018-02-06T10:09:26.061Z,1.44
2018-02-06T10:10:26.340Z,1.5
2018-02-06T10:11:26.280Z,1.5
2018-02-06T10:12:26.173Z,1.5
2018-02-06T10:13:26.131Z,1.56
2018-02-06T10:14:26.035Z,1.62
2018-02-06T10:15:26.269Z,1.62
2018-02-06T10:16:26.185Z,1.62
2018-02-06T10:17:26.159Z,1.69
2018-02-06T10:18:26.028Z,1.75
2018-02-06T10:19:26.161Z,1.75
2018-02-06T10:20:26.753Z,1.75
2018-02-06T10:21:26.072Z,1.87
2018-02-06T10:22:26.099Z,1.87
2018-02-06T10:23:26.162Z,1.94
2018-02-06T10:24:26.035Z,2
2018-02-06T10:25:26.203Z,2
2018-02-06T10:26:26.025Z,2.06
2018-02-06T10:27:26.144Z,2.06
2018-02-06T10:28:26.063Z,2.12
2018-02-06T10:29:26.046Z,2.12
2018-02-06T10:30:26.122Z,2.19
2018-02-06T10:31:26.722Z,2.19
2018-02-06T10:32:26.159Z,2.25
2018-02-06T10:33:26.139Z,2.25
2018-02-06T10:34:26.092Z,2.31
2018-02-06T10:35:26.249Z,2.31
2018-02-06T10:36:26.149Z,2.31
2018-02-06T10:37:26.100Z,2.25
2018-02-06T10:38:26.000Z,2.25
2018-02-06T10:39:26.404Z,2.25
2018-02-06T10:40:26.980Z,2.19
2018-02-06T10:41:26.136Z,2.25
2018-02-06T10:42:26.081Z,2.25
2018-02-06T10:43:26.132Z,2.25
2018-02-06T10:44:26.164Z,2.25
2018-02-06T10:45:26.249Z,2.25
2018-02-06T10:46:26.081Z,2.31
2018-02-06T10:47:25.993Z,2.31
2018-02-06T10:48:25.960Z,2.37
2018-02-06T10:49:26.027Z,2.37
2018-02-06T10:50:26.117Z,2.37
2018-02-06T10:51:25.929Z,2.44
2018-02-06T10:52:25.902Z,2.37
2018-02-06T10:53:25.966Z,2.37
2018-02-06T10:54:25.898Z,2.37
2018-02-06T10:55:25.878Z,2.37
2018-02-06T10:56:25.843Z,2.37
2018-02-06T10:57:25.826Z,2.44
2018-02-06T10:58:25.875Z,2.44
2018-02-06T10:59:25.994Z,2.44
2018-02-06T11:00:26.103Z,2.5
2018-02-06T11:01:25.979Z,2.44
2018-02-06T11:02:25.914Z,2.5
2018-02-06T11:03:25.953Z,2.5
2018-02-06T11:04:25.971Z,2.44
2018-02-06T11:05:26.691Z,2.44
2018-02-06T11:06:25.850Z,2.44
2018-02-06T11:07:25.876Z,2.44
2018-02-06T11:08:25.890Z,2.5
2018-02-06T11:09:25.973Z,2.44
2018-02-06T11:10:26.071Z,2.5
2018-02-06T11:11:25.928Z,2.5
2018-02-06T11:12:26.037Z,2.5
2018-02-06T11:13:25.875Z,2.5
2018-02-06T11:14:25.948Z,2.5
2018-02-06T11:15:26.558Z,2.56
2018-02-06T11:16:25.999Z,2.5
2018-02-06T11:17:25.904Z,2.5
2018-02-06T11:18:25.922Z,2.5
2018-02-06T11:19:25.857Z,2.5
2018-02-06T11:20:25.694Z,2.5
2018-02-06T11:21:25.693Z,2.5
2018-02-06T11:22:25.698Z,2.5
2018-02-06T11:23:25.726Z,2.44
2018-02-06T11:24:25.836Z,2.44
2018-02-06T11:25:25.728Z,2.44
2018-02-06T11:26:25.723Z,2.44
2018-02-06T11:27:25.648Z,2.44
2018-02-06T11:28:25.786Z,2.44
2018-02-06T11:29:25.734Z,2.44
2018-02-06T11:30:25.749Z,2.44
2018-02-06T11:31:25.796Z,2.44
2018-02-06T11:32:25.903Z,2.5
2018-02-06T11:33:25.812Z,2.44
2018-02-06T11:34:25.788Z,2.44
2018-02-06T11:35:25.695Z,2.37
2018-02-06T11:36:25.876Z,2.44
2018-02-06T11:37:25.844Z,2.44
2018-02-06T11:38:25.742Z,2.37
2018-02-06T11:39:25.805Z,2.44
2018-02-06T11:40:25.716Z,2.44
2018-02-06T11:41:25.726Z,2.44
2018-02-06T11:42:25.826Z,2.37
2018-02-06T11:43:25.693Z,2.37
2018-02-06T11:44:26.002Z,2.37
2018-02-06T11:45:25.813Z,2.37
2018-02-06T11:46:25.666Z,2.37
2018-02-06T11:47:25.665Z,2.37
2018-02-06T11:48:25.886Z,2.37
2018-02-06T11:49:25.824Z,2.31
2018-02-06T11:50:26.016Z,2.31
2018-02-06T11:51:25.758Z,2.25
2018-02-06T11:52:25.910Z,2.31
2018-02-06T11:53:25.813Z,2.31
2018-02-06T11:54:25.752Z,2.31
2018-02-06T11:55:25.788Z,2.31
2018-02-06T11:56:25.766Z,2.37
2018-02-06T11:57:25.896Z,2.31
2018-02-06T11:58:25.970Z,2.37
2018-02-06T11:59:25.955Z,2.31
2018-02-06T12:00:26.116Z,2.31
2018-02-06T12:01:25.698Z,2.31
2018-02-06T12:02:25.747Z,2.31
2018-02-06T12:03:25.778Z,2.31
2018-02-06T12:04:25.791Z,2.31
2018-02-06T12:05:25.726Z,2.31
2018-02-06T12:06:25.729Z,2.31
2018-02-06T12:07:25.825Z,2.31
2018-02-06T12:08:25.812Z,2.31
2018-02-06T12:09:25.878Z,2.31
2018-02-06T12:10:25.828Z,2.31
2018-02-06T12:11:25.842Z,2.31
2018-02-06T12:12:25.796Z,2.31
2018-02-06T12:13:25.887Z,2.31
2018-02-06T12:14:25.907Z,2.31
2018-02-06T12:15:25.980Z,2.37
2018-02-06T12:16:25.781Z,2.37
2018-02-06T12:17:25.807Z,2.37
2018-02-06T12:18:25.698Z,2.37
2018-02-06T12:19:25.845Z,2.37
2018-02-06T12:20:25.606Z,2.37
2018-02-06T12:21:26.012Z,2.37
2018-02-06T12:22:25.603Z,2.44
2018-02-06T12:23:25.656Z,2.37
2018-02-06T12:24:25.693Z,2.37
2018-02-06T12:25:25.614Z,2.37
2018-02-06T12:26:25.629Z,2.44
2018-02-06T12:27:25.719Z,2.44
2018-02-06T12:28:25.623Z,2.44
2018-02-06T12:29:25.608Z,2.44
2018-02-06T12:30:25.638Z,2.5
2018-02-06T12:31:25.688Z,2.5
2018-02-06T12:32:25.602Z,2.56
2018-02-06T12:33:25.565Z,2.56
2018-02-06T12:34:25.617Z,2.62
2018-02-06T12:35:25.702Z,2.56
2018-02-06T12:36:25.665Z,2.5
2018-02-06T12:37:25.613Z,2.56
2018-02-06T12:38:25.679Z,2.56
2018-02-06T12:39:25.633Z,2.56
2018-02-06T12:40:25.643Z,2.56
2018-02-06T12:41:25.686Z,2.69
2018-02-06T12:42:25.658Z,2.62
2018-02-06T12:43:25.735Z,2.69
2018-02-06T12:44:25.754Z,2.69
2018-02-06T12:45:25.738Z,2.69
2018-02-06T12:46:25.623Z,2.62
2018-02-06T12:47:25.783Z,2.69
2018-02-06T12:48:25.623Z,2.69
2018-02-06T12:49:25.641Z,2.75
2018-02-06T12:50:25.662Z,2.75
2018-02-06T12:51:25.507Z,2.75
2018-02-06T12:52:25.496Z,2.81
2018-02-06T12:53:25.463Z,2.81
2018-02-06T12:54:25.641Z,2.87
2018-02-06T12:55:25.546Z,2.94
2018-02-06T12:56:25.413Z,2.94
2018-02-06T12:57:25.832Z,3
2018-02-06T12:58:25.467Z,3.12
2018-02-06T12:59:25.613Z,3.12
2018-02-06T13:00:25.564Z,3.12
2018-02-06T13:01:25.526Z,3.19
2018-02-06T13:02:25.632Z,3.25
2018-02-06T13:03:25.475Z,3.25
2018-02-06T13:04:25.572Z,3.25
2018-02-06T13:05:25.572Z,3.31
2018-02-06T13:06:25.535Z,3.31
2018-02-06T13:07:25.444Z,3.37
2018-02-06T13:08:25.566Z,3.37
2018-02-06T13:09:25.530Z,3.44
2018-02-06T13:10:25.420Z,3.37
2018-02-06T13:11:25.520Z,3.25
2018-02-06T13:12:25.508Z,3.19
2018-02-06T13:13:25.688Z,3.19
2018-02-06T13:14:25.531Z,3.25
2018-02-06T13:15:25.593Z,3.31
2018-02-06T13:16:25.526Z,3.31
2018-02-06T13:17:25.541Z,3.25
2018-02-06T13:18:25.603Z,3.37
2018-02-06T13:19:25.589Z,3.31
2018-02-06T13:20:25.458Z,3.37
2018-02-06T13:21:25.435Z,3.37
2018-02-06T13:22:26.243Z,3.5
2018-02-06T13:23:26.240Z,3.5
2018-02-06T13:24:26.183Z,3.56
2018-02-06T13:25:26.384Z,3.56
2018-02-06T13:26:26.313Z,3.62
2018-02-06T13:27:26.253Z,3.56
2018-02-06T13:28:26.278Z,3.69
2018-02-06T13:29:26.309Z,3.62
2018-02-06T13:30:26.317Z,3.69
2018-02-06T13:31:26.280Z,3.69
2018-02-06T13:32:26.249Z,3.75
2018-02-06T13:33:26.153Z,3.75
2018-02-06T13:34:26.257Z,3.75
2018-02-06T13:35:27.021Z,3.75
2018-02-06T13:36:26.338Z,3.69
2018-02-06T13:37:26.387Z,3.75
2018-02-06T13:38:26.323Z,3.69
2018-02-06T13:39:26.306Z,3.69
2018-02-06T13:40:26.268Z,3.62
2018-02-06T13:41:26.289Z,3.56
2018-02-06T13:42:26.216Z,3.5
2018-02-06T13:43:26.213Z,3.56
2018-02-06T13:44:26.367Z,3.56
2018-02-06T13:45:26.286Z,3.56
2018-02-06T13:46:26.380Z,3.56
2018-02-06T13:47:26.215Z,3.56
2018-02-06T13:48:26.283Z,3.56
2018-02-06T13:49:26.382Z,3.62
2018-02-06T13:50:26.259Z,3.62
2018-02-06T13:51:26.370Z,3.62
2018-02-06T13:52:26.222Z,3.62
2018-02-06T13:53:26.240Z,3.62
2018-02-06T13:54:26.469Z,3.62
2018-02-06T13:55:26.253Z,3.62
2018-02-06T13:56:26.227Z,3.56
2018-02-06T13:57:26.318Z,3.56
2018-02-06T13:58:26.045Z,3.62
2018-02-06T13:59:26.219Z,3.62
2018-02-06T14:00:26.079Z,3.62
2018-02-06T14:01:26.324Z,3.62
2018-02-06T14:02:26.272Z,3.62
2018-02-06T14:03:26.203Z,3.69
2018-02-06T14:04:26.388Z,3.69
2018-02-06T14:05:26.311Z,3.69
2018-02-06T14:06:26.343Z,3.75
2018-02-06T14:07:26.265Z,3.75
2018-02-06T14:08:26.208Z,3.69
2018-02-06T14:09:26.267Z,3.69
2018-02-06T14:10:26.265Z,3.69
2018-02-06T14:11:26.313Z,3.75
2018-02-06T14:12:26.200Z,3.75
2018-02-06T14:13:26.458Z,3.75
2018-02-06T14:14:26.305Z,3.75
2018-02-06T14:15:26.362Z,3.75
2018-02-06T14:16:26.157Z,3.81
2018-02-06T14:17:26.242Z,3.75
2018-02-06T14:18:26.246Z,3.81
2018-02-06T14:19:26.221Z,3.87
2018-02-06T14:20:26.425Z,3.81
2018-02-06T14:21:26.329Z,3.81
2018-02-06T14:22:26.306Z,3.81
2018-02-06T14:23:26.352Z,3.87
2018-02-06T14:24:26.291Z,3.81
2018-02-06T14:25:26.328Z,3.81
2018-02-06T14:26:26.263Z,3.81
2018-02-06T14:27:26.579Z,3.87
2018-02-06T14:28:26.281Z,3.75
2018-02-06T14:29:26.205Z,3.75
2018-02-06T14:30:26.255Z,3.75
2018-02-06T14:31:26.086Z,3.75
2018-02-06T14:32:26.270Z,3.75
2018-02-06T14:33:26.107Z,3.69
2018-02-06T14:34:26.321Z,3.62
2018-02-06T14:35:26.345Z,3.56
2018-02-06T14:36:26.284Z,3.62
2018-02-06T14:37:26.493Z,3.62
2018-02-06T14:38:26.310Z,3.62
2018-02-06T14:39:26.177Z,3.62
2018-02-06T14:40:26.190Z,3.62
2018-02-06T14:41:26.088Z,3.56
2018-02-06T14:42:26.280Z,3.62
2018-02-06T14:43:26.323Z,3.56
2018-02-06T14:44:26.075Z,3.56
2018-02-06T14:45:26.265Z,3.56
2018-02-06T14:46:26.221Z,3.62
2018-02-06T14:47:26.167Z,3.62
2018-02-06T14:48:26.207Z,3.62
2018-02-06T14:49:26.216Z,3.62
2018-02-06T14:50:26.364Z,3.62
2018-02-06T14:51:26.267Z,3.62
2018-02-06T14:52:26.289Z,3.56
2018-02-06T14:53:26.397Z,3.62
2018-02-06T14:54:26.536Z,3.56
2018-02-06T14:55:26.267Z,3.56
2018-02-06T14:56:26.448Z,3.62
2018-02-06T14:57:26.248Z,3.5
2018-02-06T14:58:26.719Z,3.56
2018-02-06T14:59:26.330Z,3.56
2018-02-06T15:00:26.271Z,3.56
2018-02-06T15:01:26.218Z,3.56
2018-02-06T15:02:26.167Z,3.56
2018-02-06T15:03:26.353Z,3.5
2018-02-06T15:04:26.192Z,3.5
2018-02-06T15:05:26.256Z,3.5
2018-02-06T15:06:26.111Z,3.5
2018-02-06T15:07:26.212Z,3.5
2018-02-06T15:08:26.293Z,3.5
2018-02-06T15:09:26.309Z,3.5
2018-02-06T15:10:26.178Z,3.44
2018-02-06T15:11:26.139Z,3.44
2018-02-06T15:12:26.250Z,3.37
2018-02-06T15:13:26.405Z,3.37
2018-02-06T15:14:26.172Z,3.37
2018-02-06T15:15:26.708Z,3.37
2018-02-06T15:16:26.188Z,3.37
2018-02-06T15:17:26.302Z,3.37
2018-02-06T15:18:26.260Z,3.37
2018-02-06T15:19:26.263Z,3.44
2018-02-06T15:20:26.208Z,3.37
2018-02-06T15:21:26.230Z,3.37
2018-02-06T15:22:26.238Z,3.37
2018-02-06T15:23:26.178Z,3.37
2018-02-06T15:24:26.057Z,3.37